WetterOnline ( https://www.wetteronline.de )

Wetter aktuell Kappeln

Aktuelles Wetter: Schönhagen (Ostseebad) (2m)

6-stündlich | Neueste Meldungen
Ortszeit Temperatur Wetter
Mi, 01.02. 19:00 5.8° C bewölkt
Mi, 01.02. 13:00 3.8° C Regen
Mi, 01.02. 7:00 5.0° C wolkig
Mi, 01.02. 1:00 4.1° C leichter Regen
Di, 31.01. 19:00 4.8° C leichter Regen
Di, 31.01. 13:00 6.8° C Regen
Di, 31.01. 7:00 3.8° C wolkig
Di, 31.01. 1:00 2.9° C wolkenlos
Ortszeit Temperatur Wetter
Mi, 01.02. 23:00 6.0° C wolkig
Mi, 01.02. 22:50 6.0° C wolkig
Mi, 01.02. 22:40 6.1° C bewölkt
Mi, 01.02. 22:30 6.4° C bewölkt
Mi, 01.02. 22:20 6.4° C bewölkt
Mi, 01.02. 22:10 6.3° C bewölkt
Mi, 01.02. 22:00 6.0° C bewölkt
Mi, 01.02. 21:30 6.0° C wolkig
Mi, 01.02. 21:00 5.9° C bewölkt
Mi, 01.02. 20:30 5.7° C wolkig
Mi, 01.02. 20:00 5.5° C bewölkt
Ortszeit Relative Feuchte Sichtweite
Mi, 01.02. 19:00 76% 19 km
Mi, 01.02. 13:00 84% 6 km
Mi, 01.02. 7:00 83% 21 km
Mi, 01.02. 1:00 86% 16 km
Di, 31.01. 19:00 82% 14 km
Di, 31.01. 13:00 94% 11 km
Di, 31.01. 7:00 86% 27 km
Di, 31.01. 1:00 79% 26 km
Ortszeit Relative Feuchte Sichtweite
Mi, 01.02. 23:00 78% 24 km
Mi, 01.02. 22:50 78% -
Mi, 01.02. 22:40 77% -
Mi, 01.02. 22:30 74% 25 km
Mi, 01.02. 22:20 74% -
Mi, 01.02. 22:10 76% -
Mi, 01.02. 22:00 77% 23 km
Mi, 01.02. 21:30 77% 21 km
Mi, 01.02. 21:00 77% 19 km
Mi, 01.02. 20:30 77% 24 km
Mi, 01.02. 20:00 76% 25 km
Ortszeit Niederschlagsmenge Niederschlagsart
Mi, 01.02. 19:00 4 l/m2 in 12 Std. Regen
Mi, 01.02. 13:00 1 l/m2 in 6 Std. Regen
Mi, 01.02. 7:00 7 l/m2 in 12 Std. Regen
Mi, 01.02. 1:00 0.5 l/m2 in 6 Std. Regen
Di, 31.01. 19:00 5 l/m2 in 12 Std. Regen
Di, 31.01. 13:00 3 l/m2 in 6 Std. Regen
Di, 31.01. 7:00 0.1 l/m2 in 12 Std. Regen
Di, 31.01. 1:00 0.0 l/m2 in 6 Std. -
Ortszeit Niederschlagsmenge Niederschlagsart
Mi, 01.02. 23:00 0.0 l/m2 in 1 Std. -
Mi, 01.02. 22:50 keine Meldung -
Mi, 01.02. 22:40 keine Meldung -
Mi, 01.02. 22:30 0.0 l/m2 in 30 Min -
Mi, 01.02. 22:20 keine Meldung -
Mi, 01.02. 22:10 keine Meldung -
Mi, 01.02. 22:00 <0.05 l/m2 in 1 Std. Regen
Mi, 01.02. 21:30 <0.05 l/m2 in 30 Min Schneeregen
Mi, 01.02. 21:00 <0.05 l/m2 in 1 Std. Regen
Mi, 01.02. 20:30 0.0 l/m2 in 30 Min -
Mi, 01.02. 20:00 0.0 l/m2 in 1 Std. -
Ortszeit Stärke Spitze Richtung
km/h Bft. km/h Grad Sektor
Mi, 01.02. 19:00 40 6 76 270° W
Mi, 01.02. 13:00 47 6 90 300° NW
Mi, 01.02. 7:00 28 4 61 270° W
Mi, 01.02. 1:00 29 5 65 280° W
Di, 31.01. 19:00 22 4 79 330° NW
Di, 31.01. 13:00 33 5 52 270° W
Di, 31.01. 7:00 18 3 40 230° SW
Di, 31.01. 1:00 22 4 65 280° W
Ortszeit Stärke Spitze Richtung
km/h Bft. km/h Grad Sektor
Mi, 01.02. 23:00 41 6 69 290° W
Mi, 01.02. 22:50 41 6 - 290° W
Mi, 01.02. 22:40 39 6 - 290° W
Mi, 01.02. 22:30 43 6 68 290° W
Mi, 01.02. 22:20 43 6 - 290° W
Mi, 01.02. 22:10 44 6 - 290° W
Mi, 01.02. 22:00 44 6 72 290° W
Mi, 01.02. 21:30 37 5 72 280° W
Mi, 01.02. 21:00 41 6 70 270° W
Mi, 01.02. 20:30 40 6 61 280° W
Mi, 01.02. 20:00 47 6 65 280° W
Ortszeit Untergrenze Bedeckung Gattung
total tief tief mittel hoch
Mi, 01.02. 19:00 750 m 7/8 7/8 - - -
Mi, 01.02. 13:00 30 m 7/8 7/8 - - -
Mi, 01.02. 7:00 660 m 7/8 1/8 - - -
Mi, 01.02. 1:00 30 m 6/8 6/8 - - -
Di, 31.01. 19:00 930 m 7/8 7/8 - - -
Di, 31.01. 13:00 30 m 7/8 7/8 - - -
Di, 31.01. 7:00 690 m 8/8 3/8 - - -
Di, 31.01. 1:00 - 0/8 0/8 - - -
Ortszeit Bedeckungsgrad in Achtel und Wolkenuntergrenze
Mi, 01.02. 23:00 4(630m) 6(1140m) 6(1500m)
Mi, 01.02. 22:50 4(630m) 6(1140m) 6(1500m)
Mi, 01.02. 22:40 7
Mi, 01.02. 22:30 7(690m)
Mi, 01.02. 22:20 7(690m)
Mi, 01.02. 22:10 7
Mi, 01.02. 22:00 6(690m) 7(840m)
Mi, 01.02. 21:30 5(720m) 6(870m)
Mi, 01.02. 21:00 4(690m) 7(1080m) 7(1320m)
Mi, 01.02. 20:30 6(750m)
Mi, 01.02. 20:00 6(810m) 7(1020m)
Ortszeit Luftdruck NN (hPa) Tendenz (hPa in 3 Std.)
Mi, 01.02. 19:00 1003 + 0,3
Mi, 01.02. 13:00 1004 - 0,6
Mi, 01.02. 7:00 1004 - 1,4
Mi, 01.02. 1:00 1007 0,0
Di, 31.01. 19:00 1007 + 1,5
Di, 31.01. 13:00 1007 - 3,1
Di, 31.01. 7:00 1013 - 1,3
Di, 31.01. 1:00 1014 + 1,9
Ortszeit Luftdruck NN (hPa) Tendenz (hPa in 3 Std.)
Mi, 01.02. 23:00 1005 + 1,8
Mi, 01.02. 22:50 1005 keine Meldung
Mi, 01.02. 22:40 1004 keine Meldung
Mi, 01.02. 22:30 1004 + 0,5
Mi, 01.02. 22:20 1004 keine Meldung
Mi, 01.02. 22:10 1004 keine Meldung
Mi, 01.02. 22:00 1003 + 0,1
Mi, 01.02. 21:30 1003 - 0,4
Mi, 01.02. 21:00 1003 - 0,8
Mi, 01.02. 20:30 1003 - 0,5
Mi, 01.02. 20:00 1003 - 0,5
Ortszeit Schneehöhe (cm)
Mi, 01.02. 19:00 0
Mi, 01.02. 13:00 0
Mi, 01.02. 7:00 0
Mi, 01.02. 1:00 0
Di, 31.01. 19:00 0
Di, 31.01. 13:00 0
Di, 31.01. 7:00 0
Di, 31.01. 1:00 0
Ortszeit Schneehöhe (cm)
Mi, 01.02. 23:00 0
Mi, 01.02. 22:50 0
Mi, 01.02. 22:40 0
Mi, 01.02. 22:30 0
Mi, 01.02. 22:20 0
Mi, 01.02. 22:10 0
Mi, 01.02. 22:00 0
Mi, 01.02. 21:30 0
Mi, 01.02. 21:00 0
Mi, 01.02. 20:30 0
Mi, 01.02. 20:00 0
Link zu dieser Seite / Seite empfehlen

Das Wetter in ...